sensor_id;sensor_type;location;lat;lon;timestamp;temperature;humidity
37242;DHT22;23135;51.078;12.108;2023-03-19T00:01:47;10.10;99.90
37242;DHT22;23135;51.078;12.108;2023-03-19T00:04:13;10.00;99.90
37242;DHT22;23135;51.078;12.108;2023-03-19T00:06:38;10.00;99.90
37242;DHT22;23135;51.078;12.108;2023-03-19T00:09:04;9.90;99.90
37242;DHT22;23135;51.078;12.108;2023-03-19T00:11:29;9.80;99.90
37242;DHT22;23135;51.078;12.108;2023-03-19T00:13:55;9.80;99.90
37242;DHT22;23135;51.078;12.108;2023-03-19T00:16:21;9.70;99.90
37242;DHT22;23135;51.078;12.108;2023-03-19T00:18:46;9.70;99.90
37242;DHT22;23135;51.078;12.108;2023-03-19T00:21:12;9.70;99.90
37242;DHT22;23135;51.078;12.108;2023-03-19T00:23:38;9.70;99.90
37242;DHT22;23135;51.078;12.108;2023-03-19T00:26:04;9.70;99.90
37242;DHT22;23135;51.078;12.108;2023-03-19T00:28:29;9.70;99.90
37242;DHT22;23135;51.078;12.108;2023-03-19T00:30:55;9.70;99.90
37242;DHT22;23135;51.078;12.108;2023-03-19T00:33:21;9.80;99.90
37242;DHT22;23135;51.078;12.108;2023-03-19T00:35:47;9.70;99.90
37242;DHT22;23135;51.078;12.108;2023-03-19T00:38:12;9.70;99.90
37242;DHT22;23135;51.078;12.108;2023-03-19T00:40:38;9.70;99.90
37242;DHT22;23135;51.078;12.108;2023-03-19T00:43:03;9.60;99.90
37242;DHT22;23135;51.078;12.108;2023-03-19T00:45:29;9.70;99.90
37242;DHT22;23135;51.078;12.108;2023-03-19T00:47:55;9.70;99.90
37242;DHT22;23135;51.078;12.108;2023-03-19T00:50:23;9.80;99.90
37242;DHT22;23135;51.078;12.108;2023-03-19T00:52:49;9.90;99.90
37242;DHT22;23135;51.078;12.108;2023-03-19T00:55:15;10.00;99.90
37242;DHT22;23135;51.078;12.108;2023-03-19T00:57:41;10.00;99.90
37242;DHT22;23135;51.078;12.108;2023-03-19T01:00:07;10.00;99.90
37242;DHT22;23135;51.078;12.108;2023-03-19T01:02:33;9.90;99.90
37242;DHT22;23135;51.078;12.108;2023-03-19T01:04:58;9.90;99.90
37242;DHT22;23135;51.078;12.108;2023-03-19T01:07:24;9.90;99.90
37242;DHT22;23135;51.078;12.108;2023-03-19T01:09:49;9.80;99.90
37242;DHT22;23135;51.078;12.108;2023-03-19T01:12:16;9.80;99.90
37242;DHT22;23135;51.078;12.108;2023-03-19T01:14:43;9.60;99.90
37242;DHT22;23135;51.078;12.108;2023-03-19T01:17:09;9.60;99.90
37242;DHT22;23135;51.078;12.108;2023-03-19T01:19:35;9.60;99.90
37242;DHT22;23135;51.078;12.108;2023-03-19T01:22:00;9.60;99.90
37242;DHT22;23135;51.078;12.108;2023-03-19T01:24:30;9.60;99.90
37242;DHT22;23135;51.078;12.108;2023-03-19T01:26:56;9.50;99.90
37242;DHT22;23135;51.078;12.108;2023-03-19T01:29:21;9.60;99.90
37242;DHT22;23135;51.078;12.108;2023-03-19T01:31:47;9.60;99.90
37242;DHT22;23135;51.078;12.108;2023-03-19T01:34:13;9.60;99.90
37242;DHT22;23135;51.078;12.108;2023-03-19T01:36:38;9.60;99.90
37242;DHT22;23135;51.078;12.108;2023-03-19T01:39:04;9.70;99.90
37242;DHT22;23135;51.078;12.108;2023-03-19T01:41:30;9.70;99.90
37242;DHT22;23135;51.078;12.108;2023-03-19T01:43:55;9.70;99.90
37242;DHT22;23135;51.078;12.108;2023-03-19T01:46:31;9.70;99.90
37242;DHT22;23135;51.078;12.108;2023-03-19T01:49:04;9.70;99.90
37242;DHT22;23135;51.078;12.108;2023-03-19T01:51:36;9.70;99.90
37242;DHT22;23135;51.078;12.108;2023-03-19T01:54:05;9.70;99.90
37242;DHT22;23135;51.078;12.108;2023-03-19T01:56:33;9.70;99.90
37242;DHT22;23135;51.078;12.108;2023-03-19T01:59:05;9.70;99.90
37242;DHT22;23135;51.078;12.108;2023-03-19T02:01:35;9.70;99.90
37242;DHT22;23135;51.078;12.108;2023-03-19T02:04:02;9.70;99.90
37242;DHT22;23135;51.078;12.108;2023-03-19T02:06:29;9.80;99.90
37242;DHT22;23135;51.078;12.108;2023-03-19T02:08:56;9.80;99.90
37242;DHT22;23135;51.078;12.108;2023-03-19T02:11:23;9.80;99.90
37242;DHT22;23135;51.078;12.108;2023-03-19T02:13:50;9.80;99.90
37242;DHT22;23135;51.078;12.108;2023-03-19T02:16:16;9.80;99.90
37242;DHT22;23135;51.078;12.108;2023-03-19T02:18:43;9.70;99.90
37242;DHT22;23135;51.078;12.108;2023-03-19T02:21:10;9.80;99.90
37242;DHT22;23135;51.078;12.108;2023-03-19T02:23:49;9.80;99.90
37242;DHT22;23135;51.078;12.108;2023-03-19T02:26:22;9.70;99.90
37242;DHT22;23135;51.078;12.108;2023-03-19T02:28:50;9.70;99.90
37242;DHT22;23135;51.078;12.108;2023-03-19T02:31:17;9.60;99.90
37242;DHT22;23135;51.078;12.108;2023-03-19T02:33:43;9.60;99.90
37242;DHT22;23135;51.078;12.108;2023-03-19T02:36:13;9.60;99.90
37242;DHT22;23135;51.078;12.108;2023-03-19T02:38:42;9.50;99.90
37242;DHT22;23135;51.078;12.108;2023-03-19T02:41:09;9.50;99.90
37242;DHT22;23135;51.078;12.108;2023-03-19T02:43:37;9.50;99.90
37242;DHT22;23135;51.078;12.108;2023-03-19T02:46:06;9.50;99.90
37242;DHT22;23135;51.078;12.108;2023-03-19T02:48:32;9.60;99.90
37242;DHT22;23135;51.078;12.108;2023-03-19T02:50:59;9.50;99.90
37242;DHT22;23135;51.078;12.108;2023-03-19T02:53:24;9.50;99.90
37242;DHT22;23135;51.078;12.108;2023-03-19T02:55:50;9.60;99.90
37242;DHT22;23135;51.078;12.108;2023-03-19T02:58:16;9.60;99.90
37242;DHT22;23135;51.078;12.108;2023-03-19T03:00:43;9.60;99.90
37242;DHT22;23135;51.078;12.108;2023-03-19T03:03:10;9.50;99.90
37242;DHT22;23135;51.078;12.108;2023-03-19T03:05:35;9.50;99.90
37242;DHT22;23135;51.078;12.108;2023-03-19T03:08:02;9.50;99.90
37242;DHT22;23135;51.078;12.108;2023-03-19T03:10:29;9.40;99.90
37242;DHT22;23135;51.078;12.108;2023-03-19T03:12:54;9.40;99.90
37242;DHT22;23135;51.078;12.108;2023-03-19T03:15:20;9.20;99.90
37242;DHT22;23135;51.078;12.108;2023-03-19T03:17:46;9.10;99.90
37242;DHT22;23135;51.078;12.108;2023-03-19T03:20:13;9.00;99.90
37242;DHT22;23135;51.078;12.108;2023-03-19T03:22:40;8.90;99.90
37242;DHT22;23135;51.078;12.108;2023-03-19T03:25:06;8.80;99.90
37242;DHT22;23135;51.078;12.108;2023-03-19T03:27:32;8.70;99.90
37242;DHT22;23135;51.078;12.108;2023-03-19T03:29:58;8.60;99.90
37242;DHT22;23135;51.078;12.108;2023-03-19T03:32:24;8.50;99.90
37242;DHT22;23135;51.078;12.108;2023-03-19T03:34:49;8.60;99.90
37242;DHT22;23135;51.078;12.108;2023-03-19T03:37:15;8.60;99.90
37242;DHT22;23135;51.078;12.108;2023-03-19T03:39:41;8.50;99.90
37242;DHT22;23135;51.078;12.108;2023-03-19T03:42:07;8.30;99.90
37242;DHT22;23135;51.078;12.108;2023-03-19T03:44:33;8.30;99.90
37242;DHT22;23135;51.078;12.108;2023-03-19T03:46:58;8.20;99.90
37242;DHT22;23135;51.078;12.108;2023-03-19T03:49:24;8.30;99.90
37242;DHT22;23135;51.078;12.108;2023-03-19T03:51:50;8.30;99.90
37242;DHT22;23135;51.078;12.108;2023-03-19T03:54:15;8.30;99.90
37242;DHT22;23135;51.078;12.108;2023-03-19T03:56:41;8.20;99.90
37242;DHT22;23135;51.078;12.108;2023-03-19T03:59:06;8.20;99.90
37242;DHT22;23135;51.078;12.108;2023-03-19T04:01:32;8.20;99.90
37242;DHT22;23135;51.078;12.108;2023-03-19T04:03:58;8.20;99.90
37242;DHT22;23135;51.078;12.108;2023-03-19T04:06:24;8.20;99.90
37242;DHT22;23135;51.078;12.108;2023-03-19T04:08:51;8.10;99.90
37242;DHT22;23135;51.078;12.108;2023-03-19T04:11:17;8.10;99.90
37242;DHT22;23135;51.078;12.108;2023-03-19T04:13:42;8.00;99.90
37242;DHT22;23135;51.078;12.108;2023-03-19T04:16:09;8.10;99.90
37242;DHT22;23135;51.078;12.108;2023-03-19T04:18:35;8.10;99.90
37242;DHT22;23135;51.078;12.108;2023-03-19T04:21:02;8.10;99.90
37242;DHT22;23135;51.078;12.108;2023-03-19T04:23:28;8.00;99.90
37242;DHT22;23135;51.078;12.108;2023-03-19T04:25:57;8.00;99.90
37242;DHT22;23135;51.078;12.108;2023-03-19T04:28:24;8.00;99.90
37242;DHT22;23135;51.078;12.108;2023-03-19T04:30:49;7.90;99.90
37242;DHT22;23135;51.078;12.108;2023-03-19T04:33:15;7.90;99.90
37242;DHT22;23135;51.078;12.108;2023-03-19T04:35:41;7.90;99.90
37242;DHT22;23135;51.078;12.108;2023-03-19T04:38:07;7.80;99.90
37242;DHT22;23135;51.078;12.108;2023-03-19T04:40:33;7.80;99.90
37242;DHT22;23135;51.078;12.108;2023-03-19T04:42:59;7.70;99.90
37242;DHT22;23135;51.078;12.108;2023-03-19T04:45:24;7.70;99.90
37242;DHT22;23135;51.078;12.108;2023-03-19T04:47:50;7.70;99.90
37242;DHT22;23135;51.078;12.108;2023-03-19T04:50:16;7.70;99.90
37242;DHT22;23135;51.078;12.108;2023-03-19T04:52:42;7.70;99.90
37242;DHT22;23135;51.078;12.108;2023-03-19T04:55:08;7.60;99.90
37242;DHT22;23135;51.078;12.108;2023-03-19T04:57:34;7.60;99.90
37242;DHT22;23135;51.078;12.108;2023-03-19T04:59:59;7.60;99.90
37242;DHT22;23135;51.078;12.108;2023-03-19T05:02:25;7.60;99.90
37242;DHT22;23135;51.078;12.108;2023-03-19T05:04:51;7.50;99.90
37242;DHT22;23135;51.078;12.108;2023-03-19T05:07:18;7.40;99.90
37242;DHT22;23135;51.078;12.108;2023-03-19T05:09:43;7.40;99.90
37242;DHT22;23135;51.078;12.108;2023-03-19T05:12:11;7.30;99.90
37242;DHT22;23135;51.078;12.108;2023-03-19T05:14:37;7.30;99.90
37242;DHT22;23135;51.078;12.108;2023-03-19T05:17:03;7.20;99.90
37242;DHT22;23135;51.078;12.108;2023-03-19T05:19:28;7.10;99.90
37242;DHT22;23135;51.078;12.108;2023-03-19T05:21:54;7.20;99.90
37242;DHT22;23135;51.078;12.108;2023-03-19T05:24:21;7.10;99.90
37242;DHT22;23135;51.078;12.108;2023-03-19T05:26:47;7.20;99.90
37242;DHT22;23135;51.078;12.108;2023-03-19T05:29:13;7.20;99.90
37242;DHT22;23135;51.078;12.108;2023-03-19T05:31:39;7.20;99.90
37242;DHT22;23135;51.078;12.108;2023-03-19T05:34:04;7.20;99.90
37242;DHT22;23135;51.078;12.108;2023-03-19T05:36:30;7.30;99.90
37242;DHT22;23135;51.078;12.108;2023-03-19T05:38:55;7.30;99.90
37242;DHT22;23135;51.078;12.108;2023-03-19T05:41:21;7.30;99.90
37242;DHT22;23135;51.078;12.108;2023-03-19T05:43:47;7.30;99.90
37242;DHT22;23135;51.078;12.108;2023-03-19T05:46:12;7.30;99.90
37242;DHT22;23135;51.078;12.108;2023-03-19T05:48:38;7.30;99.90
37242;DHT22;23135;51.078;12.108;2023-03-19T05:51:04;7.30;99.90
37242;DHT22;23135;51.078;12.108;2023-03-19T05:53:29;7.40;99.90
37242;DHT22;23135;51.078;12.108;2023-03-19T05:55:55;7.50;99.90
37242;DHT22;23135;51.078;12.108;2023-03-19T05:58:20;7.60;99.90
37242;DHT22;23135;51.078;12.108;2023-03-19T06:00:46;7.80;99.90
37242;DHT22;23135;51.078;12.108;2023-03-19T06:03:13;7.90;99.90
37242;DHT22;23135;51.078;12.108;2023-03-19T06:05:39;8.00;99.90
37242;DHT22;23135;51.078;12.108;2023-03-19T06:08:05;8.00;99.90
37242;DHT22;23135;51.078;12.108;2023-03-19T06:10:32;8.10;99.90
37242;DHT22;23135;51.078;12.108;2023-03-19T06:12:58;8.20;99.90
37242;DHT22;23135;51.078;12.108;2023-03-19T06:15:24;8.20;99.90
37242;DHT22;23135;51.078;12.108;2023-03-19T06:17:50;8.20;99.90
37242;DHT22;23135;51.078;12.108;2023-03-19T06:20:16;8.30;99.90
37242;DHT22;23135;51.078;12.108;2023-03-19T06:22:42;8.40;99.90
37242;DHT22;23135;51.078;12.108;2023-03-19T06:25:08;8.50;99.90
37242;DHT22;23135;51.078;12.108;2023-03-19T06:27:34;8.60;99.90
37242;DHT22;23135;51.078;12.108;2023-03-19T06:29:59;8.70;99.90
37242;DHT22;23135;51.078;12.108;2023-03-19T06:32:25;8.80;99.90
37242;DHT22;23135;51.078;12.108;2023-03-19T06:34:50;9.00;99.90
37242;DHT22;23135;51.078;12.108;2023-03-19T06:37:16;9.10;99.90
37242;DHT22;23135;51.078;12.108;2023-03-19T06:39:43;9.30;99.90
37242;DHT22;23135;51.078;12.108;2023-03-19T06:42:08;9.40;99.90
37242;DHT22;23135;51.078;12.108;2023-03-19T06:44:34;9.60;99.90
37242;DHT22;23135;51.078;12.108;2023-03-19T06:46:59;9.70;99.90
37242;DHT22;23135;51.078;12.108;2023-03-19T06:49:25;9.80;99.90
37242;DHT22;23135;51.078;12.108;2023-03-19T06:51:51;10.00;99.90
37242;DHT22;23135;51.078;12.108;2023-03-19T06:54:17;10.10;99.90
37242;DHT22;23135;51.078;12.108;2023-03-19T06:56:42;10.20;99.90
37242;DHT22;23135;51.078;12.108;2023-03-19T06:59:08;10.30;99.90
37242;DHT22;23135;51.078;12.108;2023-03-19T07:01:38;10.30;99.90
37242;DHT22;23135;51.078;12.108;2023-03-19T07:04:04;10.30;99.90
37242;DHT22;23135;51.078;12.108;2023-03-19T07:06:29;10.40;99.90
37242;DHT22;23135;51.078;12.108;2023-03-19T07:08:55;10.50;99.90
37242;DHT22;23135;51.078;12.108;2023-03-19T07:11:21;10.60;99.90
37242;DHT22;23135;51.078;12.108;2023-03-19T07:13:46;10.60;99.90
37242;DHT22;23135;51.078;12.108;2023-03-19T07:16:12;10.70;99.90
37242;DHT22;23135;51.078;12.108;2023-03-19T07:18:38;10.80;99.90
37242;DHT22;23135;51.078;12.108;2023-03-19T07:21:03;10.90;99.90
37242;DHT22;23135;51.078;12.108;2023-03-19T07:23:29;11.10;99.90
37242;DHT22;23135;51.078;12.108;2023-03-19T07:25:55;11.20;99.90
37242;DHT22;23135;51.078;12.108;2023-03-19T07:28:21;11.30;99.90
37242;DHT22;23135;51.078;12.108;2023-03-19T07:30:47;11.50;99.90
37242;DHT22;23135;51.078;12.108;2023-03-19T07:33:12;11.70;99.90
37242;DHT22;23135;51.078;12.108;2023-03-19T07:35:38;11.80;99.90
37242;DHT22;23135;51.078;12.108;2023-03-19T07:38:03;11.90;99.90
37242;DHT22;23135;51.078;12.108;2023-03-19T07:40:29;11.90;99.90
37242;DHT22;23135;51.078;12.108;2023-03-19T07:42:55;12.10;99.90
37242;DHT22;23135;51.078;12.108;2023-03-19T07:45:21;12.30;99.90
37242;DHT22;23135;51.078;12.108;2023-03-19T07:47:48;12.50;99.90
37242;DHT22;23135;51.078;12.108;2023-03-19T07:50:15;12.60;99.90
37242;DHT22;23135;51.078;12.108;2023-03-19T07:52:43;12.60;99.90
37242;DHT22;23135;51.078;12.108;2023-03-19T07:55:09;12.60;99.90
37242;DHT22;23135;51.078;12.108;2023-03-19T07:57:34;12.70;99.90
37242;DHT22;23135;51.078;12.108;2023-03-19T08:00:00;12.80;99.90
37242;DHT22;23135;51.078;12.108;2023-03-19T08:02:25;12.90;99.90
37242;DHT22;23135;51.078;12.108;2023-03-19T08:04:51;13.00;99.90
37242;DHT22;23135;51.078;12.108;2023-03-19T08:07:16;13.20;99.90
37242;DHT22;23135;51.078;12.108;2023-03-19T08:09:42;13.20;99.90
37242;DHT22;23135;51.078;12.108;2023-03-19T08:12:08;13.20;99.90
37242;DHT22;23135;51.078;12.108;2023-03-19T08:14:34;13.20;99.90
37242;DHT22;23135;51.078;12.108;2023-03-19T08:17:00;13.20;99.90
37242;DHT22;23135;51.078;12.108;2023-03-19T08:19:25;13.20;99.90
37242;DHT22;23135;51.078;12.108;2023-03-19T08:21:51;13.10;99.90
37242;DHT22;23135;51.078;12.108;2023-03-19T08:24:17;13.30;99.90
37242;DHT22;23135;51.078;12.108;2023-03-19T08:26:43;13.40;99.90
37242;DHT22;23135;51.078;12.108;2023-03-19T08:29:08;13.40;99.90
37242;DHT22;23135;51.078;12.108;2023-03-19T08:31:34;13.50;99.90
37242;DHT22;23135;51.078;12.108;2023-03-19T08:33:59;13.60;99.90
37242;DHT22;23135;51.078;12.108;2023-03-19T08:36:27;13.60;99.90
37242;DHT22;23135;51.078;12.108;2023-03-19T08:38:53;13.70;99.90
37242;DHT22;23135;51.078;12.108;2023-03-19T08:41:20;13.90;99.90
37242;DHT22;23135;51.078;12.108;2023-03-19T08:43:46;14.10;99.90
37242;DHT22;23135;51.078;12.108;2023-03-19T08:46:12;14.10;99.90
37242;DHT22;23135;51.078;12.108;2023-03-19T08:48:37;14.10;99.90
37242;DHT22;23135;51.078;12.108;2023-03-19T08:51:03;14.20;99.90
37242;DHT22;23135;51.078;12.108;2023-03-19T08:53:30;14.20;99.90
37242;DHT22;23135;51.078;12.108;2023-03-19T08:56:00;14.30;99.90
37242;DHT22;23135;51.078;12.108;2023-03-19T08:58:27;14.40;99.90
37242;DHT22;23135;51.078;12.108;2023-03-19T09:00:59;14.40;99.90
37242;DHT22;23135;51.078;12.108;2023-03-19T09:03:25;14.50;99.90
37242;DHT22;23135;51.078;12.108;2023-03-19T09:05:51;14.60;99.90
37242;DHT22;23135;51.078;12.108;2023-03-19T09:08:17;14.60;99.90
37242;DHT22;23135;51.078;12.108;2023-03-19T09:10:42;14.60;99.90
37242;DHT22;23135;51.078;12.108;2023-03-19T09:13:08;14.70;99.90
37242;DHT22;23135;51.078;12.108;2023-03-19T09:15:34;14.70;99.90
37242;DHT22;23135;51.078;12.108;2023-03-19T09:17:59;14.60;99.90
37242;DHT22;23135;51.078;12.108;2023-03-19T09:20:25;14.60;99.90
37242;DHT22;23135;51.078;12.108;2023-03-19T09:22:50;14.60;99.90
37242;DHT22;23135;51.078;12.108;2023-03-19T09:25:16;14.60;99.90
37242;DHT22;23135;51.078;12.108;2023-03-19T09:27:42;14.40;99.90
37242;DHT22;23135;51.078;12.108;2023-03-19T09:30:08;14.30;99.90
37242;DHT22;23135;51.078;12.108;2023-03-19T09:32:34;14.20;99.90
37242;DHT22;23135;51.078;12.108;2023-03-19T09:35:00;14.20;99.90
37242;DHT22;23135;51.078;12.108;2023-03-19T09:37:25;14.40;99.90
37242;DHT22;23135;51.078;12.108;2023-03-19T09:39:51;14.40;99.90
37242;DHT22;23135;51.078;12.108;2023-03-19T09:42:44;14.60;99.90
37242;DHT22;23135;51.078;12.108;2023-03-19T09:45:15;14.60;99.90
37242;DHT22;23135;51.078;12.108;2023-03-19T09:47:43;14.80;99.90
37242;DHT22;23135;51.078;12.108;2023-03-19T09:50:18;14.80;99.90
37242;DHT22;23135;51.078;12.108;2023-03-19T09:55:44;15.10;99.90
37242;DHT22;23135;51.078;12.108;2023-03-19T09:58:17;15.10;99.90
37242;DHT22;23135;51.078;12.108;2023-03-19T10:00:46;15.20;99.90
37242;DHT22;23135;51.078;12.108;2023-03-19T10:03:41;15.30;99.90
37242;DHT22;23135;51.078;12.108;2023-03-19T10:11:47;15.10;99.90
37242;DHT22;23135;51.078;12.108;2023-03-19T10:16:54;15.00;99.90
37242;DHT22;23135;51.078;12.108;2023-03-19T10:19:23;14.90;99.90
37242;DHT22;23135;51.078;12.108;2023-03-19T10:21:54;14.90;99.90
37242;DHT22;23135;51.078;12.108;2023-03-19T10:24:30;14.90;99.90
37242;DHT22;23135;51.078;12.108;2023-03-19T10:27:00;14.80;99.90
37242;DHT22;23135;51.078;12.108;2023-03-19T10:29:27;14.90;99.90
37242;DHT22;23135;51.078;12.108;2023-03-19T10:34:50;15.00;99.90
37242;DHT22;23135;51.078;12.108;2023-03-19T10:37:20;15.20;99.90
37242;DHT22;23135;51.078;12.108;2023-03-19T10:39:50;15.20;99.90
37242;DHT22;23135;51.078;12.108;2023-03-19T10:45:28;15.30;99.90
37242;DHT22;23135;51.078;12.108;2023-03-19T10:47:58;15.40;99.90
37242;DHT22;23135;51.078;12.108;2023-03-19T10:55:53;15.60;99.90
37242;DHT22;23135;51.078;12.108;2023-03-19T10:58:22;15.60;99.90
37242;DHT22;23135;51.078;12.108;2023-03-19T11:00:56;15.60;99.90
37242;DHT22;23135;51.078;12.108;2023-03-19T11:06:22;15.50;99.90
37242;DHT22;23135;51.078;12.108;2023-03-19T11:08:55;15.50;99.90
37242;DHT22;23135;51.078;12.108;2023-03-19T11:11:25;15.40;99.90
37242;DHT22;23135;51.078;12.108;2023-03-19T11:13:51;15.40;99.90
37242;DHT22;23135;51.078;12.108;2023-03-19T11:16:17;15.30;99.90
37242;DHT22;23135;51.078;12.108;2023-03-19T11:18:46;15.20;99.90
37242;DHT22;23135;51.078;12.108;2023-03-19T11:21:22;15.10;99.90
37242;DHT22;23135;51.078;12.108;2023-03-19T11:23:59;14.80;99.90
37242;DHT22;23135;51.078;12.108;2023-03-19T11:26:25;14.90;99.90
37242;DHT22;23135;51.078;12.108;2023-03-19T11:28:53;15.10;99.90
37242;DHT22;23135;51.078;12.108;2023-03-19T11:39:17;14.70;99.90
37242;DHT22;23135;51.078;12.108;2023-03-19T11:45:01;14.60;99.90
37242;DHT22;23135;51.078;12.108;2023-03-19T11:50:39;14.60;99.90
37242;DHT22;23135;51.078;12.108;2023-03-19T11:53:31;14.50;99.90
37242;DHT22;23135;51.078;12.108;2023-03-19T12:10:31;13.80;99.90
37242;DHT22;23135;51.078;12.108;2023-03-19T12:15:53;13.70;99.90
37242;DHT22;23135;51.078;12.108;2023-03-19T12:21:20;13.70;99.90
37242;DHT22;23135;51.078;12.108;2023-03-19T12:27:07;13.80;99.90
37242;DHT22;23135;51.078;12.108;2023-03-19T12:29:45;13.80;99.90
37242;DHT22;23135;51.078;12.108;2023-03-19T12:35:15;13.60;99.90
37242;DHT22;23135;51.078;12.108;2023-03-19T12:40:26;13.50;99.90
37242;DHT22;23135;51.078;12.108;2023-03-19T12:42:57;13.50;99.90
37242;DHT22;23135;51.078;12.108;2023-03-19T12:48:03;13.20;99.90
37242;DHT22;23135;51.078;12.108;2023-03-19T12:50:33;13.00;99.90
37242;DHT22;23135;51.078;12.108;2023-03-19T12:53:01;12.70;99.90
37242;DHT22;23135;51.078;12.108;2023-03-19T12:55:40;12.40;99.90
37242;DHT22;23135;51.078;12.108;2023-03-19T12:58:16;12.20;99.90
37242;DHT22;23135;51.078;12.108;2023-03-19T13:00:57;12.00;99.90
37242;DHT22;23135;51.078;12.108;2023-03-19T13:06:02;11.70;99.90
37242;DHT22;23135;51.078;12.108;2023-03-19T13:08:36;11.70;99.90
37242;DHT22;23135;51.078;12.108;2023-03-19T13:11:19;11.50;99.90
37242;DHT22;23135;51.078;12.108;2023-03-19T13:19:50;11.50;99.90
37242;DHT22;23135;51.078;12.108;2023-03-19T13:22:21;11.60;99.90
37242;DHT22;23135;51.078;12.108;2023-03-19T13:24:49;11.70;99.90
37242;DHT22;23135;51.078;12.108;2023-03-19T13:32:40;11.90;99.90
37242;DHT22;23135;51.078;12.108;2023-03-19T13:38:03;12.00;99.90
37242;DHT22;23135;51.078;12.108;2023-03-19T13:40:38;12.00;99.90
37242;DHT22;23135;51.078;12.108;2023-03-19T13:43:40;12.00;99.90
37242;DHT22;23135;51.078;12.108;2023-03-19T13:53:53;12.00;99.90
37242;DHT22;23135;51.078;12.108;2023-03-19T13:56:19;12.00;99.90
37242;DHT22;23135;51.078;12.108;2023-03-19T14:01:41;12.10;99.90
37242;DHT22;23135;51.078;12.108;2023-03-19T14:04:16;12.10;99.90
37242;DHT22;23135;51.078;12.108;2023-03-19T14:06:46;12.10;99.90
37242;DHT22;23135;51.078;12.108;2023-03-19T14:09:35;12.10;99.90
37242;DHT22;23135;51.078;12.108;2023-03-19T14:12:21;12.10;99.90
37242;DHT22;23135;51.078;12.108;2023-03-19T14:17:37;12.20;99.90
37242;DHT22;23135;51.078;12.108;2023-03-19T14:26:08;12.10;99.90
37242;DHT22;23135;51.078;12.108;2023-03-19T14:31:53;12.10;99.90
37242;DHT22;23135;51.078;12.108;2023-03-19T14:34:26;12.00;99.90
37242;DHT22;23135;51.078;12.108;2023-03-19T14:37:03;12.10;99.90
37242;DHT22;23135;51.078;12.108;2023-03-19T14:39:38;12.10;99.90
37242;DHT22;23135;51.078;12.108;2023-03-19T14:42:26;12.10;99.90
37242;DHT22;23135;51.078;12.108;2023-03-19T14:45:17;12.00;99.90
37242;DHT22;23135;51.078;12.108;2023-03-19T14:50:55;12.00;99.90
37242;DHT22;23135;51.078;12.108;2023-03-19T14:53:36;12.10;99.90
37242;DHT22;23135;51.078;12.108;2023-03-19T14:56:15;12.10;99.90
37242;DHT22;23135;51.078;12.108;2023-03-19T14:58:53;12.20;99.90
37242;DHT22;23135;51.078;12.108;2023-03-19T15:01:20;12.30;99.90
37242;DHT22;23135;51.078;12.108;2023-03-19T15:04:04;12.40;99.90
37242;DHT22;23135;51.078;12.108;2023-03-19T15:06:34;12.40;99.90
37242;DHT22;23135;51.078;12.108;2023-03-19T15:09:01;12.50;99.90
37242;DHT22;23135;51.078;12.108;2023-03-19T15:11:46;12.60;99.90
37242;DHT22;23135;51.078;12.108;2023-03-19T15:14:26;12.60;99.90
37242;DHT22;23135;51.078;12.108;2023-03-19T15:17:17;12.70;99.90
37242;DHT22;23135;51.078;12.108;2023-03-19T15:19:44;12.70;99.90
37242;DHT22;23135;51.078;12.108;2023-03-19T15:22:15;12.70;99.90
37242;DHT22;23135;51.078;12.108;2023-03-19T15:24:43;12.70;99.90
37242;DHT22;23135;51.078;12.108;2023-03-19T15:27:23;12.70;99.90
37242;DHT22;23135;51.078;12.108;2023-03-19T15:29:50;12.70;99.90
37242;DHT22;23135;51.078;12.108;2023-03-19T15:32:35;12.70;99.90
37242;DHT22;23135;51.078;12.108;2023-03-19T15:35:02;12.70;99.90
37242;DHT22;23135;51.078;12.108;2023-03-19T15:37:29;12.70;99.90
37242;DHT22;23135;51.078;12.108;2023-03-19T15:39:57;12.80;99.90
37242;DHT22;23135;51.078;12.108;2023-03-19T15:42:26;12.80;99.90
37242;DHT22;23135;51.078;12.108;2023-03-19T15:45:14;12.90;99.90
37242;DHT22;23135;51.078;12.108;2023-03-19T15:47:47;13.00;99.90
37242;DHT22;23135;51.078;12.108;2023-03-19T15:50:17;13.00;99.90
37242;DHT22;23135;51.078;12.108;2023-03-19T15:52:49;13.10;99.90
37242;DHT22;23135;51.078;12.108;2023-03-19T15:55:17;13.20;99.90
37242;DHT22;23135;51.078;12.108;2023-03-19T15:57:45;13.30;99.90
37242;DHT22;23135;51.078;12.108;2023-03-19T16:00:13;13.40;99.90
37242;DHT22;23135;51.078;12.108;2023-03-19T16:02:41;13.60;99.90
37242;DHT22;23135;51.078;12.108;2023-03-19T16:05:24;13.70;99.90
37242;DHT22;23135;51.078;12.108;2023-03-19T16:07:58;13.70;99.90
37242;DHT22;23135;51.078;12.108;2023-03-19T16:12:54;13.80;99.90
37242;DHT22;23135;51.078;12.108;2023-03-19T16:15:44;13.80;99.90
37242;DHT22;23135;51.078;12.108;2023-03-19T16:21:08;13.60;99.90
37242;DHT22;23135;51.078;12.108;2023-03-19T16:23:42;13.50;99.90
37242;DHT22;23135;51.078;12.108;2023-03-19T16:29:02;13.50;99.90
37242;DHT22;23135;51.078;12.108;2023-03-19T16:31:30;13.40;99.90
37242;DHT22;23135;51.078;12.108;2023-03-19T16:33:58;13.40;99.90
37242;DHT22;23135;51.078;12.108;2023-03-19T16:36:28;13.40;99.90
37242;DHT22;23135;51.078;12.108;2023-03-19T16:44:33;13.30;99.90
37242;DHT22;23135;51.078;12.108;2023-03-19T16:46:59;13.30;99.90
37242;DHT22;23135;51.078;12.108;2023-03-19T16:49:25;13.20;99.90
37242;DHT22;23135;51.078;12.108;2023-03-19T16:51:51;13.10;99.90
37242;DHT22;23135;51.078;12.108;2023-03-19T16:54:17;13.00;99.90
37242;DHT22;23135;51.078;12.108;2023-03-19T16:56:42;12.80;99.90
37242;DHT22;23135;51.078;12.108;2023-03-19T16:59:18;12.70;99.90
37242;DHT22;23135;51.078;12.108;2023-03-19T17:01:44;12.60;99.90
37242;DHT22;23135;51.078;12.108;2023-03-19T17:04:13;12.50;99.90
37242;DHT22;23135;51.078;12.108;2023-03-19T17:06:42;12.40;99.90
37242;DHT22;23135;51.078;12.108;2023-03-19T17:09:08;12.30;99.90
37242;DHT22;23135;51.078;12.108;2023-03-19T17:11:36;12.20;99.90
37242;DHT22;23135;51.078;12.108;2023-03-19T17:14:03;12.10;99.90
37242;DHT22;23135;51.078;12.108;2023-03-19T17:16:31;12.00;99.90
37242;DHT22;23135;51.078;12.108;2023-03-19T17:18:56;11.90;99.90
37242;DHT22;23135;51.078;12.108;2023-03-19T17:21:25;11.80;99.90
37242;DHT22;23135;51.078;12.108;2023-03-19T17:23:52;11.70;99.90
37242;DHT22;23135;51.078;12.108;2023-03-19T17:26:23;11.70;99.90
37242;DHT22;23135;51.078;12.108;2023-03-19T17:28:52;11.60;99.90
37242;DHT22;23135;51.078;12.108;2023-03-19T17:31:26;11.60;99.90
37242;DHT22;23135;51.078;12.108;2023-03-19T17:34:04;11.50;99.90
37242;DHT22;23135;51.078;12.108;2023-03-19T17:36:30;11.50;99.90
37242;DHT22;23135;51.078;12.108;2023-03-19T17:38:57;11.40;99.90